Station: Streaky Bay

  Atmospheric Gas Attenuation - ITU Rec 676-11   --------------- db/100km ---------------
Date Time Temp RH % AH g/m3 Dew Point Wind Direction Speed kph Gust kph Barometer mB Rainfall Since 9am 24GHz 47GHz 76GHz 122GHz 134GHz 241GHz
16 09:00 9.8 100 9.28 9.8 4 1024.8 0.2 21.2 28.7 45.4 119.1 114.3 393.5
14 09:00 8.5 91 7.77 7.2 9 1027 0 18.0 26.6 39.7 103.8 94.9 325.3
13 09:00 8 100 8.27 8 7 1028.2 0.4 19.1 27.7 42.1 110.4 102.7 352.5
12 09:00 10.4 96 9.25 9.8 4 1024 6 21.1 28.4 44.8 117.7 112.9 388.7
11 09:00 9.4 95 8.59 8.6 9 1018.9 7 19.8 27.4 42.3 111.0 104.5 359.3
10 09:00 13.5 93 10.88 12.4 11 1020.8 3 24.5 30.1 49.9 131.3 131.1 452.6
09 09:00 8.1 72 5.99 3.4 15 1021.8 0 14.2 23.6 32.4 84.4 71.0 241.7
08 09:00 7.1 81 6.32 4.1 15 1025.9 0 15.0 24.6 34.3 89.4 76.6 261.0
07 09:00 7.5 81 6.49 4.5 17 1030.2 0 15.3 24.9 35.0 91.2 78.8 268.6
06 09:00 8.5 93 7.94 7.4 6 1032.4 0.2 18.4 27.1 40.6 106.3 97.7 335.1
05 09:00 10.5 92 8.92 9.3 2 1032.8 0 20.4 28.2 43.8 114.7 108.9 374.5
04 09:00 10.6 92 8.98 9.4 2 1033.6 0.1 20.5 28.3 44.0 115.4 109.7 377.2
03 09:00 13 94 10.66 12.1 9 1028.2 0.8 24.0 30.2 49.7 130.5 129.5 446.9
02 09:00 13.9 61 7.31 6.6 7 1020.4 2 16.8 24.1 35.0 91.5 82.2 281.5
01 09:00 13.4 71 8.25 8.2 15 1011.2 0 18.9 25.4 38.5 101.0 94.1 323.5
30 09:00 12 70 7.46 6.8 15 1014.6 0 17.2 24.6 36.2 94.7 85.7 293.8
29 09:00 7 68 5.27 1.5 11 1022.5 0 12.7 22.8 30.0 78.1 62.7 212.4
28 09:00 8 87 7.2 6 11 1027 0 16.8 25.8 37.5 98.1 87.6 299.8
27 09:00 10.8 63 6.23 4 13 1025.7 0 14.7 23.4 32.4 84.4 71.9 245.0
26 09:00 8.4 97 8.23 8 6 1026.4 0.6 19.0 27.4 41.6 109.1 101.4 348.2
24 09:00 10.1 74 7 5.7 20 1020 0 16.3 24.6 35.4 92.7 82.1 280.9
23 09:00 11.6 92 9.56 10.4 9 1023.8 0 21.7 28.6 45.5 119.4 115.5 398.0
22 09:00 14 78 9.41 10.3 6 1023.1 1 21.3 27.5 43.5 114.1 109.9 378.5
21 09:00 13.8 74 8.82 9.3 19 1020 2 20.1 26.5 41.0 107.5 101.9 350.6
20 09:00 12.7 81 9.02 9.6 13 1019.8 3 20.5 27.2 42.4 111.2 106.1 365.1
19 09:00 14.9 94 11.98 14 6 1018.4 0 26.8 31.5 53.7 141.6 144.3 498.9
18 09:00 12.5 60 6.6 5.1 20 1025 0 15.4 23.5 33.1 86.3 74.9 255.9
17 09:00 11.4 90 9.24 9.8 9 1030.7 0 21.1 28.4 44.5 116.8 111.9 385.3
16 09:00 12.7 97 10.8 12.3 11 1027.4 0.4 24.3 30.6 50.4 132.6 132.0 455.6
14 09:00 14.5 94 11.69 13.6 15 1021.2 2 26.2 31.2 52.9 139.2 141.1 487.7
13 09:00 13.1 99 11.3 12.9 13 1009.3 10 25.4 30.6 51.5 135.6 136.7 472.2
12 09:00 12 58 6.18 4 20 1016.2 0 14.5 22.7 31.3 81.8 69.6 237.3
09 09:00 6.5 78 5.85 2.9 11 1028.9 0 14.0 24.1 32.7 85.3 71.1 241.6
08 09:00 6.2 97 7.14 5.7 2 1031 0 16.8 26.4 38.3 100.1 89.2 304.8
07 09:00 9 100 8.82 9 4 1028.3 0.3 20.3 28.3 44.0 115.3 109.2 375.4
06 09:00 10 97 9.12 9.6 4 1027.7 0.5 20.9 28.5 44.7 117.2 112.0 385.4
05 09:00 9.7 66 6.09 3.7 11 1035.8 0 14.4 23.9 32.7 85.0 71.7 244.2
04 09:00 11.3 78 7.96 7.6 7 1028.5 0 18.3 26.2 39.1 102.4 94.2 323.2
03 09:00 12.8 96 10.75 12.2 6 1033.1 0.8 24.2 30.7 50.4 132.5 131.6 454.4
29 09:00 13.8 67 7.98 7.9 19 1023.4 0 18.3 25.3 37.8 98.9 91.1 312.7
28 09:00 11.1 99 9.97 10.9 11 1023.9 1 22.7 29.5 47.6 125.0 122.2 421.2
27 09:00 14.1 97 11.77 13.7 7 1020.3 3 26.4 31.5 53.5 140.8 142.9 494.0
26 09:00 13.9 57 6.83 5.7 26 1015.3 0 15.8 23.2 33.0 86.2 75.8 259.4
25 09:00 9.4 81 7.33 6.4 11 1022.7 0 17.1 25.4 37.2 97.3 87.5 299.5
23 09:00 13.8 97 11.56 13.3 13 1025.5 1 25.9 31.4 53.0 139.5 141.0 487.1
22 09:00 13 70 7.94 7.7 6 1027.4 0 18.2 25.6 38.2 99.9 91.8 315.1
21 09:00 13.9 59 7.07 6.1 4 1026.5 4 16.3 23.9 34.3 89.7 79.6 272.3
20 09:00 15.5 54 7.14 6.2 11 1022.5 0 16.4 23.5 33.8 88.2 78.6 269.1
19 09:00 17.9 79 12.06 14.2 17 1018.1 0 26.7 30.6 52.0 137.1 139.8 483.7
18 09:00 12.1 68 7.29 6.4 9 1023.4 0 16.9 24.7 35.8 93.7 84.0 287.8
17 09:00 11.5 62 6.4 4.6 4 1028.7 0 15.0 23.6 32.9 85.6 73.6 251.0
14 09:00 11.4 76 7.8 7.4 7 1030.4 0 18.0 25.9 38.5 100.7 92.1 315.8
13 09:00 13.1 87 9.93 11 7 1029.3 1 22.4 29.0 46.5 122.0 119.0 410.2
12 09:00 13.8 58 6.91 5.7 11 1024 0 16.0 23.6 33.7 87.9 77.5 265.1
11 09:00 11 81 8.11 7.9 11 1028.9 0 18.7 26.5 39.9 104.5 96.6 331.7
10 09:00 12.2 87 9.39 10.2 6 1029.5 0.6 21.3 28.3 44.7 117.2 112.8 388.3
05 09:00 11.8 63 6.63 5 20 1030.7 0 15.5 24.0 33.7 87.9 76.4 260.8
04 09:00 10.1 91 8.61 8.7 6 1027.8 0.1 19.8 27.6 42.4 111.2 104.6 359.6
03 09:00 14.9 91 11.6 13.5 4 1027.5 1 25.9 31.2 52.5 138.2 139.7 482.9
02 09:00 16.9 69 9.92 11.3 15 1022.8 2 22.2 27.5 43.9 115.4 112.5 388.3
01 09:00 13.9 83 9.95 11.1 15 1024.6 2 22.5 28.5 45.8 120.4 117.6 405.5
30 09:00 11.2 86 8.72 9 6 1022.5 15 20.0 27.2 42.1 110.3 104.2 358.4
29 09:00 13.4 67 7.79 7.5 7 1011.5 6 17.9 24.6 36.7 96.2 88.2 302.7
28 09:00 18.9 69 11.18 13.1 15 1012.5 0 24.8 28.5 47.4 124.9 125.4 433.5
27 09:00 13.2 84 9.65 10.5 6 1024.3 0 21.9 28.2 45.0 118.1 114.4 394.4
26 09:00 17.8 97 14.72 17.3 9 1021.8 4 32.4 35.6 64.3 169.6 179.6 622.3
25 09:00 21.8 47 9.02 10.2 17 1013.9 0 20.1 24.3 37.6 98.6 93.9 323.9
24 09:00 14.5 99 12.31 14.3 2 1021.6 0.4 27.5 32.4 55.7 146.7 150.3 519.8
23 09:00 23.2 57 11.85 14.2 15 1015.6 26.0 28.3 47.7 125.6 127.5 441.5
22 09:00 15.1 99 12.77 14.9 9 1022.1 28.4 33.0 57.4 151.2 156.0 539.9
21 09:00 18.7 57 9.13 10.1 11 1016.6 0.2 20.5 25.5 39.6 103.9 99.3 342.3
20 09:00 18 85 13.05 15.4 4 1015.2 0.4 28.9 32.1 56.1 148.0 153.4 531.2
19 09:00 15.5 77 10.18 11.6 17 1011.1 0.2 22.9 27.9 45.2 119.0 117.0 404.0
18 09:00 15.5 94 12.43 14.6 9 1020.4 0.2 27.7 32.2 55.4 146.1 150.0 518.8
17 09:00 17.9 62 9.47 10.6 6 1022.6 0 21.2 26.4 41.6 109.1 105.2 362.7
16 09:00 18.2 76 11.81 14 19 1018.7 0.1 26.2 30.1 50.8 133.8 135.8 469.8
15 09:00 21.7 34 6.49 5.2 22 1014.6 0 14.8 20.8 28.8 75.2 65.0 222.3
14 09:00 20.2 44 7.69 7.8 17 1019.2 17.4 23.0 33.7 88.1 80.3 275.7
13 09:00 16.2 57 7.86 7.8 15 1018.8 17.9 24.3 36.0 94.3 86.5 297.0
12 09:00 13.8 66 7.86 7.5 6 1022.8 0 18.0 25.1 37.3 97.6 89.5 307.1
10 09:00 17.1 78 11.35 13.2 9 1019.3 0 25.3 29.7 49.6 130.5 131.4 454.2
09 09:00 16.9 66 9.49 10.5 7 1024.5 0 21.3 26.8 42.3 110.9 107.0 368.8
08 09:00 15.5 69 9.12 9.9 9 1024.3 0 20.6 26.7 41.5 108.9 104.0 358.1
07 09:00 15 100 12.82 15 9 1023.9 0.2 28.6 33.2 57.8 152.3 157.2 544.0
06 09:00 15.2 98 12.72 14.9 9 1023.9 0.2 28.3 33.0 57.2 150.6 155.3 537.3
05 09:00 17.5 58 8.65 9.2 11 1020.2 19.5 25.2 38.5 100.9 95.0 327.1
04 09:00 16.1 63 8.64 9.1 17 1014.8 4 19.6 25.4 38.9 102.0 96.2 331.0
03 09:00 16.9 80 11.51 13.5 11 1004.9 0.1 25.7 29.4 49.7 130.9 132.5 458.1
02 09:00 13.9 99 11.87 13.7 2 1013.1 0.3 26.6 31.5 53.7 141.4 144.0 497.8
31 09:00 12.9 96 10.82 12.3 4 1018.5 0.4 24.4 30.2 49.9 131.4 131.0 452.3
30 09:00 16 98 13.35 15.7 2 1017.7 0.4 29.6 33.6 59.1 155.9 162.3 562.0
29 09:00 16.9 96 13.81 16.2 4 1012.5 0.8 30.6 33.8 60.2 159.0 166.6 577.2
28 09:00 20 62 10.71 12.5 15 1014.5 23.7 27.5 45.0 118.3 117.6 406.5
27 09:00 16.1 60 8.22 8.4 4 1020.6 18.7 24.9 37.5 98.3 91.3 313.7
26 09:00 13 94 10.66 12.1 6 1024.1 0 24.0 30.1 49.4 130.0 129.1 445.5
25 09:00 14.1 97 11.77 13.6 11 1024.5 0.1 26.4 31.7 53.7 141.3 143.4 495.6
24 09:00 14.6 93 11.64 13.5 6 1021.3 5 26.0 31.1 52.6 138.4 140.2 484.6
23 09:00 16 67 9.13 9.9 7 1026.9 0 20.6 26.6 41.4 108.6 103.7 357.1
22 09:00 16.5 99 13.9 16.3 7 1027.4 0.1 30.8 34.8 61.8 163.0 170.8 591.4
21 09:00 16.5 90 12.64 14.8 7 1023 0 28.1 32.3 55.8 147.0 151.4 523.8

Last Refresh: 17-Jul-2020 01:37:13

Most of the information presented on this site is sourced from the Bureau of Meteorology.  Copyright in all material sourced from the Bureau of Meteorology resides with the Commonwealth of Australia.